Portada
METAR-TAF:

METAR-TAF

Aeroports :

Porter County Municipal Airport

Valparaiso, Indiana, Estats Units d'Amèrica

latitud: 41-27-11N, longitud: 086-59-53W, altitud: 234 m

Observació

L'informe es va fer fa 1 hora i 1 minuts, a les 05:56 UTC
Vent 17 kt del Oest amb ràfegues de 25 kt
Temperatura 7°C
Humitat 70%
Pressió 1014 hPa
Visibilitat: 16.1 km
Cel cobert a una alçada de 3300 ft

METAR: KVPZ 300556Z AUTO 26017G25KT 10SM OVC033 07/02 A2993 RMK AO2 PK WND 26030/0501 SLP137 60000 T00670022 10083 20067 401830067 51008

Hora: 01:57 (06:57 UTC)


TAF: manca

Observacions i pronòstics meteorològics de més de 4000 aeroports (METAR i TAF).

Les estacions disponibles són els punts grocs i vermells al mapa.

Posi el ratolí al punt desitjat per veure el nom de l'estació.

Feu clic per veure les observacions i els pronòstics meteorològics.

Per canviar el mapa: feu clic els botons verds amb una creu de color negre per apropar; al botó verd amb un guió per allunyar la imatge; o en les fletxes verdes per a mapes adjacents.


METAR-TAF: